Time;durP1;ratioP1;P1;durP2;ratioP2;P2;SDS_P1;SDS_P2;PMS_P1;PMS_P2;Temp;Humidity;BMP_temperature;BMP_pressure;BME280_temperature;BME280_humidity;BME280_pressure;Samples;Min_cycle;Max_cycle;Signal;HPM_P1;HPM_P2
2021/01/17 00:00:03;;;;;;;25.23;12.98;;;-2.70;99.90;;;;;;5072386;28;20024;-64
2021/01/17 00:02:28;;;;;;;26.33;13.13;;;-2.70;99.90;;;;;;5054371;28;20040;-62
2021/01/17 00:04:54;;;;;;;27.20;13.43;;;-2.70;99.90;;;;;;5073255;28;20358;-63
2021/01/17 00:07:20;;;;;;;26.33;13.48;;;-2.70;99.90;;;;;;5071953;28;20497;-63
2021/01/17 00:09:45;;;;;;;30.60;14.88;;;-2.70;99.90;;;;;;5072840;28;20171;-63
2021/01/17 00:12:11;;;;;;;25.88;13.90;;;-2.80;99.90;;;;;;5072096;28;20040;-63
2021/01/17 00:14:37;;;;;;;27.40;13.73;;;-2.80;99.90;;;;;;5073320;28;20066;-63
2021/01/17 00:17:03;;;;;;;30.70;15.50;;;-2.80;99.90;;;;;;5063534;28;20035;-65
2021/01/17 00:19:30;;;;;;;27.92;14.20;;;-2.80;99.90;;;;;;5073301;28;20116;-63
2021/01/17 00:21:56;;;;;;;29.35;14.70;;;-2.80;99.90;;;;;;5060754;28;20123;-63
2021/01/17 00:24:21;;;;;;;29.25;15.40;;;-2.80;99.90;;;;;;5072599;28;20108;-63
2021/01/17 00:26:47;;;;;;;27.35;14.95;;;-2.80;99.90;;;;;;5072907;28;20358;-64
2021/01/17 00:29:13;;;;;;;30.65;15.88;;;-2.80;99.90;;;;;;5054235;28;20441;-63
2021/01/17 00:31:38;;;;;;;28.67;14.35;;;-2.80;99.90;;;;;;5072194;28;20488;-63
2021/01/17 00:34:04;;;;;;;33.33;16.00;;;-2.80;99.90;;;;;;5066747;28;20058;-65
2021/01/17 00:36:37;;;;;;;28.17;14.43;;;-2.80;99.90;;;;;;5059531;28;20481;-63
2021/01/17 00:39:04;;;;;;;28.45;15.38;;;-2.80;99.90;;;;;;5056705;28;20033;-65
2021/01/17 00:41:31;;;;;;;30.45;14.55;;;-2.90;99.90;;;;;;5055884;28;20094;-63
2021/01/17 00:43:57;;;;;;;27.88;14.80;;;-2.80;99.90;;;;;;5071940;28;20031;-64
2021/01/17 00:46:22;;;;;;;29.17;14.50;;;-2.80;99.90;;;;;;5034020;28;20109;-63
2021/01/17 00:48:48;;;;;;;30.25;14.90;;;-2.90;99.90;;;;;;5064927;28;20033;-63
2021/01/17 00:51:13;;;;;;;33.67;15.63;;;-2.90;99.90;;;;;;5070877;28;20442;-63
2021/01/17 00:53:39;;;;;;;31.23;15.48;;;-2.80;99.90;;;;;;5068678;28;20416;-62
2021/01/17 00:56:05;;;;;;;32.47;16.17;;;-2.90;99.90;;;;;;5068116;28;20035;-63
2021/01/17 00:58:30;;;;;;;33.95;16.90;;;-2.90;99.90;;;;;;5052182;28;20044;-63
2021/01/17 01:00:56;;;;;;;33.30;16.90;;;-2.90;99.90;;;;;;5066946;28;20064;-63
2021/01/17 01:03:22;;;;;;;33.63;16.80;;;-2.90;99.90;;;;;;5071439;28;20027;-61
2021/01/17 01:05:49;;;;;;;34.70;17.92;;;-2.90;99.90;;;;;;5071328;28;20060;-62
2021/01/17 01:08:15;;;;;;;35.58;17.40;;;-2.90;99.90;;;;;;5063454;28;20043;-62
2021/01/17 01:10:40;;;;;;;37.83;17.55;;;-2.80;99.90;;;;;;5066736;28;20017;-62
2021/01/17 01:13:06;;;;;;;36.03;18.58;;;-2.90;99.90;;;;;;5051089;28;20036;-63
2021/01/17 01:15:32;;;;;;;34.70;18.00;;;-2.80;99.90;;;;;;5045988;28;20029;-62
2021/01/17 01:17:59;;;;;;;35.45;18.70;;;-2.90;99.90;;;;;;5070260;28;20020;-62
2021/01/17 01:20:24;;;;;;;37.67;20.35;;;-2.80;99.90;;;;;;5065731;28;20044;-63
2021/01/17 01:22:50;;;;;;;39.63;19.67;;;-2.90;99.90;;;;;;5071035;28;20049;-62
2021/01/17 01:25:16;;;;;;;39.10;19.73;;;-2.90;99.90;;;;;;5070021;28;20055;-62
2021/01/17 01:27:48;;;;;;;38.85;20.48;;;-2.90;99.90;;;;;;5064088;28;20102;-62
2021/01/17 01:30:15;;;;;;;42.30;20.50;;;-2.90;99.90;;;;;;5068845;28;20040;-62
2021/01/17 01:32:42;;;;;;;38.00;18.92;;;-2.90;99.90;;;;;;5071908;28;20032;-64
2021/01/17 01:35:08;;;;;;;35.28;18.80;;;-2.90;99.90;;;;;;5070339;28;20059;-64
2021/01/17 01:37:37;;;;;;;37.10;19.65;;;-2.90;99.90;;;;;;5070621;28;20108;-64
2021/01/17 01:40:07;;;;;;;37.03;19.40;;;-2.90;99.90;;;;;;5064305;28;20037;-65
2021/01/17 01:42:32;;;;;;;33.72;18.38;;;-2.90;99.90;;;;;;5064428;28;20051;-63
2021/01/17 01:44:58;;;;;;;35.33;17.50;;;-2.90;99.90;;;;;;5070769;28;20033;-63
2021/01/17 01:47:28;;;;;;;36.10;17.92;;;-2.90;99.90;;;;;;5070557;28;20028;-62
2021/01/17 01:49:55;;;;;;;37.40;18.50;;;-2.90;99.90;;;;;;5071307;28;20035;-62
2021/01/17 01:52:21;;;;;;;33.67;17.65;;;-2.90;99.90;;;;;;5069068;28;20054;-63
2021/01/17 01:54:48;;;;;;;34.65;18.08;;;-2.90;99.90;;;;;;5067622;28;20017;-62
2021/01/17 01:57:15;;;;;;;33.47;17.20;;;-2.90;99.90;;;;;;5058594;28;20474;-63
2021/01/17 01:59:40;;;;;;;33.78;17.85;;;-2.90;99.90;;;;;;5061955;28;20021;-62
2021/01/17 02:02:09;;;;;;;32.53;17.20;;;-2.90;99.90;;;;;;5050717;28;20043;-64
2021/01/17 02:04:36;;;;;;;33.88;17.40;;;-2.90;99.90;;;;;;5068992;28;20028;-62
2021/01/17 02:07:25;;;;;;;31.10;15.98;;;-2.90;99.90;;;;;;5060206;28;20055;-64
2021/01/17 02:09:50;;;;;;;30.45;16.05;;;-2.90;99.90;;;;;;5062416;28;20032;-62
2021/01/17 02:12:41;;;;;;;33.83;18.38;;;-2.90;99.90;;;;;;5050621;28;20032;-64
2021/01/17 02:15:27;;;;;;;37.83;18.00;;;-2.90;99.90;;;;;;5060619;28;20035;-64
2021/01/17 02:17:54;;;;;;;33.95;17.77;;;-2.90;99.90;;;;;;5051196;28;20440;-63
2021/01/17 02:20:23;;;;;;;34.60;17.63;;;-2.90;99.90;;;;;;5050372;28;20056;-63
2021/01/17 02:23:02;;;;;;;36.45;18.40;;;-2.90;99.90;;;;;;5055007;28;20049;-62
2021/01/17 02:25:38;;;;;;;35.47;18.25;;;-2.90;99.90;;;;;;5050678;28;20366;-63
2021/01/17 02:28:07;;;;;;;36.53;18.92;;;-2.90;99.90;;;;;;5053596;28;20025;-64
2021/01/17 02:30:36;;;;;;;39.22;20.02;;;-2.90;99.90;;;;;;5071766;28;20036;-63
2021/01/17 02:33:29;;;;;;;36.13;18.50;;;-2.90;99.90;;;;;;5055987;28;20017;-63
2021/01/17 02:36:20;;;;;;;35.70;18.27;;;-2.90;99.90;;;;;;5071520;28;20600;-62
2021/01/17 02:39:03;;;;;;;40.92;20.08;;;-2.90;99.90;;;;;;5066568;28;20071;-62
2021/01/17 02:41:44;;;;;;;30.05;17.13;;;-2.90;99.90;;;;;;5068609;28;20082;-62
2021/01/17 02:44:10;;;;;;;38.88;19.88;;;-2.90;99.90;;;;;;5070749;28;20051;-63
2021/01/17 02:46:35;;;;;;;38.78;18.58;;;-2.90;99.90;;;;;;5071296;28;20047;-62
2021/01/17 02:49:01;;;;;;;35.78;18.35;;;-2.80;99.90;;;;;;5070109;28;20024;-63
2021/01/17 02:51:27;;;;;;;35.25;19.20;;;-2.90;99.90;;;;;;5060750;28;20021;-64
2021/01/17 02:54:05;;;;;;;36.80;18.77;;;-2.90;99.90;;;;;;5052595;28;20104;-63
2021/01/17 02:56:32;;;;;;;37.72;18.83;;;-2.90;99.90;;;;;;5057858;28;20377;-62
2021/01/17 02:58:59;;;;;;;37.00;18.25;;;-2.80;99.90;;;;;;5070993;28;20039;-62
2021/01/17 03:01:31;;;;;;;36.45;18.73;;;-2.80;99.90;;;;;;5071839;28;20200;-63
2021/01/17 03:04:15;;;;;;;34.53;17.38;;;-2.90;99.90;;;;;;5070784;28;20033;-62
2021/01/17 03:06:43;;;;;;;40.42;18.92;;;-2.90;99.90;;;;;;5073992;28;20365;-61
2021/01/17 03:09:10;;;;;;;38.25;19.48;;;-2.80;99.90;;;;;;5074085;28;20029;-65
2021/01/17 03:11:36;;;;;;;40.60;20.38;;;-2.90;99.90;;;;;;5075409;28;20036;-63
2021/01/17 03:14:05;;;;;;;36.88;18.88;;;-2.90;99.90;;;;;;5077748;28;20020;-61
2021/01/17 03:16:31;;;;;;;37.42;20.83;;;-2.90;99.90;;;;;;5072670;28;20571;-61
2021/01/17 03:18:57;;;;;;;36.50;19.02;;;-2.90;99.90;;;;;;5081759;28;20036;-62
2021/01/17 03:21:22;;;;;;;42.35;19.55;;;-2.90;99.90;;;;;;5079906;28;20102;-62
2021/01/17 03:23:48;;;;;;;40.05;20.10;;;-2.90;99.90;;;;;;5079292;28;20028;-62
2021/01/17 03:26:14;;;;;;;36.22;19.27;;;-2.90;99.90;;;;;;5078972;28;20037;-63
2021/01/17 03:28:39;;;;;;;34.78;18.23;;;-2.90;99.90;;;;;;5063792;28;20032;-63
2021/01/17 03:31:05;;;;;;;39.97;19.58;;;-2.80;99.90;;;;;;5081650;28;20028;-64
2021/01/17 03:33:31;;;;;;;40.80;19.08;;;-2.90;99.90;;;;;;5062514;28;20102;-63
2021/01/17 03:35:56;;;;;;;37.47;18.90;;;-2.90;99.90;;;;;;5078174;28;20029;-63
2021/01/17 03:38:22;;;;;;;36.78;18.13;;;-2.90;99.90;;;;;;5079122;28;20036;-61
2021/01/17 03:40:48;;;;;;;32.78;18.15;;;-2.90;99.90;;;;;;5056718;28;20024;-62
2021/01/17 03:43:13;;;;;;;38.13;19.13;;;-2.90;99.90;;;;;;5077533;28;20028;-63
2021/01/17 03:45:39;;;;;;;35.47;18.02;;;-2.80;99.90;;;;;;5075250;28;20505;-62
2021/01/17 03:48:05;;;;;;;33.60;17.13;;;-2.80;99.90;;;;;;5075417;28;20052;-65
2021/01/17 03:50:31;;;;;;;37.55;18.85;;;-2.80;99.90;;;;;;5070685;28;20078;-62
2021/01/17 03:52:56;;;;;;;35.90;18.50;;;-2.80;99.90;;;;;;5064745;28;20021;-62
2021/01/17 03:55:22;;;;;;;35.85;17.20;;;-2.80;99.90;;;;;;5073207;28;20031;-62
2021/01/17 03:57:47;;;;;;;34.28;18.23;;;-2.80;99.90;;;;;;5077204;28;20040;-62
2021/01/17 04:00:14;;;;;;;36.85;18.67;;;-2.80;99.90;;;;;;5071432;28;20090;-63
2021/01/17 04:02:39;;;;;;;36.75;18.17;;;-2.80;99.90;;;;;;5073530;28;20036;-62
2021/01/17 04:05:05;;;;;;;36.38;18.60;;;-2.80;99.90;;;;;;5073956;28;20031;-64
2021/01/17 04:07:31;;;;;;;35.72;17.88;;;-2.80;99.90;;;;;;5063770;28;20108;-62
2021/01/17 04:09:57;;;;;;;35.00;18.27;;;-2.80;99.90;;;;;;5067200;28;20499;-64
2021/01/17 04:12:22;;;;;;;35.90;18.02;;;-2.70;99.90;;;;;;5052857;28;20035;-62
2021/01/17 04:14:48;;;;;;;37.35;18.50;;;-2.70;99.90;;;;;;5068946;28;20025;-61
2021/01/17 04:17:14;;;;;;;35.33;18.55;;;-2.70;99.90;;;;;;5056059;28;20543;-60
2021/01/17 04:19:39;;;;;;;33.83;18.15;;;-2.70;99.90;;;;;;5060241;28;20036;-61
2021/01/17 04:22:05;;;;;;;36.47;18.17;;;-2.70;99.90;;;;;;5054745;28;20076;-62
2021/01/17 04:24:30;;;;;;;39.35;18.98;;;-2.60;99.90;;;;;;5073855;28;20025;-61
2021/01/17 04:26:58;;;;;;;44.17;21.13;;;-2.60;99.90;;;;;;5068969;28;20028;-63
2021/01/17 04:29:24;;;;;;;38.13;19.35;;;-2.70;99.90;;;;;;5060311;28;20044;-60
2021/01/17 04:31:50;;;;;;;36.80;19.15;;;-2.70;99.90;;;;;;5052944;28;20040;-63
2021/01/17 04:34:15;;;;;;;38.00;19.30;;;-2.60;99.90;;;;;;5062448;28;20033;-61
2021/01/17 04:36:46;;;;;;;37.95;19.67;;;-2.60;99.90;;;;;;5062856;28;20036;-61
2021/01/17 04:39:12;;;;;;;40.28;21.33;;;-2.70;99.90;;;;;;5052535;28;20028;-62
2021/01/17 04:41:42;;;;;;;36.63;17.80;;;-2.60;99.90;;;;;;5060339;28;20024;-62
2021/01/17 04:44:10;;;;;;;34.42;18.05;;;-2.60;99.90;;;;;;5072585;28;20489;-64
2021/01/17 04:46:37;;;;;;;38.10;20.55;;;-2.60;99.90;;;;;;5069096;28;20111;-62
2021/01/17 04:49:06;;;;;;;41.47;20.40;;;-2.60;99.90;;;;;;5072749;28;20036;-61
2021/01/17 04:51:32;;;;;;;45.20;22.25;;;-2.60;99.90;;;;;;5072762;28;20037;-61
2021/01/17 04:53:59;;;;;;;40.58;20.92;;;-2.60;99.90;;;;;;5062202;28;20033;-62
2021/01/17 04:56:26;;;;;;;37.50;19.88;;;-2.60;99.90;;;;;;5061603;28;20060;-62
2021/01/17 04:59:09;;;;;;;41.70;21.30;;;-2.70;99.90;;;;;;5060835;28;20116;-61
2021/01/17 05:01:47;;;;;;;41.25;20.45;;;-2.60;99.90;;;;;;5060256;28;20032;-63
2021/01/17 05:04:28;;;;;;;43.22;22.55;;;-2.60;99.90;;;;;;5051622;28;20025;-62
2021/01/17 05:06:57;;;;;;;43.05;20.48;;;-2.60;99.90;;;;;;5067542;28;20040;-62
2021/01/17 05:09:31;;;;;;;43.63;20.90;;;-2.60;99.90;;;;;;5051902;28;20033;-62
2021/01/17 05:12:13;;;;;;;39.65;20.45;;;-2.60;99.90;;;;;;5052360;28;20033;-61
2021/01/17 05:14:59;;;;;;;41.75;20.48;;;-2.60;99.90;;;;;;5052349;28;20025;-61
2021/01/17 05:17:25;;;;;;;42.33;21.23;;;-2.60;99.90;;;;;;5062055;28;20033;-61
2021/01/17 05:19:51;;;;;;;40.45;20.17;;;-2.60;99.90;;;;;;5052589;28;20100;-61
2021/01/17 05:22:20;;;;;;;45.15;21.08;;;-2.60;99.90;;;;;;5051051;28;20049;-61
2021/01/17 05:24:51;;;;;;;40.70;20.48;;;-2.60;99.90;;;;;;5052048;28;20029;-60
2021/01/17 05:27:17;;;;;;;37.83;19.30;;;-2.60;99.90;;;;;;5065478;28;20021;-61
2021/01/17 05:29:42;;;;;;;39.95;19.75;;;-2.60;99.90;;;;;;5061055;28;20074;-61
2021/01/17 05:32:08;;;;;;;38.33;19.30;;;-2.60;99.90;;;;;;5070824;28;20381;-63
2021/01/17 05:34:34;;;;;;;38.55;19.83;;;-2.60;99.90;;;;;;5071978;28;20020;-62
2021/01/17 05:37:01;;;;;;;38.47;20.00;;;-2.60;99.90;;;;;;5071335;28;20511;-61
2021/01/17 05:39:26;;;;;;;42.55;21.35;;;-2.60;99.90;;;;;;5057150;28;20037;-61
2021/01/17 05:41:52;;;;;;;44.22;20.98;;;-2.60;99.90;;;;;;5058901;28;20028;-62
2021/01/17 05:44:29;;;;;;;39.78;19.67;;;-2.60;99.90;;;;;;5071181;28;20424;-62
2021/01/17 05:47:05;;;;;;;42.33;20.42;;;-2.60;99.90;;;;;;5071260;28;20040;-62
2021/01/17 05:49:31;;;;;;;37.80;19.75;;;-2.60;99.90;;;;;;5070936;28;20109;-61
2021/01/17 05:52:10;;;;;;;45.88;21.30;;;-2.50;99.90;;;;;;5069871;28;20025;-62
2021/01/17 05:54:37;;;;;;;39.60;19.70;;;-2.50;99.90;;;;;;5057142;28;20025;-61
2021/01/17 05:57:12;;;;;;;41.28;19.70;;;-2.50;99.90;;;;;;5063565;28;20032;-61
2021/01/17 05:59:38;;;;;;;45.83;21.55;;;-2.50;99.90;;;;;;5063157;28;20087;-62
2021/01/17 06:02:14;;;;;;;46.75;21.98;;;-2.50;99.90;;;;;;5071327;28;20032;-61
2021/01/17 06:04:42;;;;;;;45.50;21.85;;;-2.40;99.90;;;;;;5046181;28;20051;-61
2021/01/17 06:07:08;;;;;;;44.47;22.50;;;-2.40;99.90;;;;;;5069374;28;20036;-61
2021/01/17 06:09:38;;;;;;;47.47;22.73;;;-2.40;99.90;;;;;;5071311;28;20036;-62
2021/01/17 06:12:04;;;;;;;;;;;-2.40;99.90;;;;;;5071640;28;20021;-61
2021/01/17 06:14:31;;;;;;;47.58;22.52;;;-2.40;99.90;;;;;;5071172;28;19911;-62
2021/01/17 06:16:59;;;;;;;50.08;23.70;;;-2.40;99.90;;;;;;5071926;28;20485;-61
2021/01/17 06:19:32;;;;;;;46.85;21.63;;;-2.40;99.90;;;;;;5064774;28;20040;-61
2021/01/17 06:22:07;;;;;;;46.78;23.55;;;-2.30;99.90;;;;;;5070937;28;20175;-61
2021/01/17 06:24:40;;;;;;;49.97;24.08;;;-2.30;99.90;;;;;;5070089;28;20136;-60
2021/01/17 06:27:08;;;;;;;53.47;25.17;;;-2.30;99.90;;;;;;5052629;28;20028;-61
2021/01/17 06:29:42;;;;;;;45.47;22.25;;;-2.40;99.90;;;;;;5063288;28;20036;-61
2021/01/17 06:32:31;;;;;;;48.95;23.92;;;-2.40;99.90;;;;;;5035445;28;20100;-62
2021/01/17 06:34:58;;;;;;;50.17;24.45;;;-2.40;99.90;;;;;;5065196;28;20025;-61
2021/01/17 06:37:28;;;;;;;48.08;22.90;;;-2.40;99.90;;;;;;5071209;28;20030;-62
2021/01/17 06:39:57;;;;;;;49.00;23.70;;;-2.40;99.90;;;;;;5063844;28;20094;-61
2021/01/17 06:42:24;;;;;;;48.28;23.90;;;-2.40;99.90;;;;;;5060662;28;20028;-61
2021/01/17 06:44:51;;;;;;;51.38;23.75;;;-2.40;99.90;;;;;;5074098;28;20111;-61
2021/01/17 06:47:22;;;;;;;49.95;24.65;;;-2.40;99.90;;;;;;5056275;28;20028;-60
2021/01/17 06:49:49;;;;;;;49.13;23.65;;;-2.40;99.90;;;;;;5073660;28;20056;-61
2021/01/17 06:52:16;;;;;;;43.90;22.98;;;-2.40;99.90;;;;;;5074429;28;20035;-63
2021/01/17 06:54:52;;;;;;;42.17;22.35;;;-2.40;99.90;;;;;;5074038;28;20029;-61
2021/01/17 06:57:20;;;;;;;47.83;24.52;;;-2.40;99.90;;;;;;5073272;28;20485;-61
2021/01/17 06:59:50;;;;;;;50.80;23.77;;;-2.40;99.90;;;;;;5073831;28;20060;-61
2021/01/17 07:02:29;;;;;;;;;;;-2.40;99.90;;;;;;5073260;28;20090;-62
2021/01/17 07:05:06;;;;;;;49.37;23.80;;;-2.40;99.90;;;;;;5054571;28;20450;-61
2021/01/17 07:07:50;;;;;;;50.30;24.80;;;-2.40;99.90;;;;;;5056196;28;20017;-61
2021/01/17 07:10:21;;;;;;;49.63;24.30;;;-2.40;99.90;;;;;;5072161;28;20028;-61
2021/01/17 07:13:02;;;;;;;49.03;24.45;;;-2.30;99.90;;;;;;5073398;28;20101;-61
2021/01/17 07:15:29;;;;;;;52.50;25.17;;;-2.30;99.90;;;;;;5057518;28;20029;-61
2021/01/17 07:18:02;;;;;;;52.05;24.80;;;-2.30;99.90;;;;;;5053450;28;20033;-61
2021/01/17 07:20:29;;;;;;;49.53;24.83;;;-2.30;99.90;;;;;;5062695;28;20041;-61
2021/01/17 07:22:59;;;;;;;55.85;24.13;;;-2.30;99.90;;;;;;5074552;28;20052;-61
2021/01/17 07:25:26;;;;;;;51.50;24.95;;;-2.30;99.90;;;;;;5072248;28;20029;-61
2021/01/17 07:27:52;;;;;;;52.95;25.40;;;-2.30;99.90;;;;;;5073717;28;20603;-61
2021/01/17 07:30:45;;;;;;;52.25;25.20;;;-2.30;99.90;;;;;;5072212;28;20103;-62
2021/01/17 07:33:13;;;;;;;49.35;24.00;;;-2.20;99.90;;;;;;5073644;28;20504;-61
2021/01/17 07:35:40;;;;;;;47.95;23.45;;;-2.20;99.90;;;;;;5073554;28;20020;-62
2021/01/17 07:38:21;;;;;;;48.83;24.05;;;-2.10;99.90;;;;;;5073763;28;20036;-62
2021/01/17 07:41:00;;;;;;;53.60;25.48;;;-2.10;99.90;;;;;;5061299;28;20469;-63
2021/01/17 07:43:29;;;;;;;50.33;25.70;;;-2.00;99.90;;;;;;5038466;28;20032;-61
2021/01/17 07:46:06;;;;;;;52.78;24.17;;;-2.00;99.90;;;;;;5059778;28;20037;-61
2021/01/17 07:48:33;;;;;;;53.00;23.95;;;-1.90;99.90;;;;;;5062352;28;20132;-61
2021/01/17 07:51:00;;;;;;;56.55;26.05;;;-1.90;99.90;;;;;;5041633;28;20037;-61
2021/01/17 07:53:38;;;;;;;52.72;24.15;;;-1.80;99.90;;;;;;5034818;28;20021;-62
2021/01/17 07:56:15;;;;;;;52.55;25.67;;;-1.80;99.90;;;;;;5057980;28;20166;-61
2021/01/17 07:58:50;;;;;;;43.45;23.02;;;-1.70;99.90;;;;;;5071524;28;20132;-63
2021/01/17 08:01:31;;;;;;;47.60;22.85;;;-1.70;99.90;;;;;;5035409;28;20394;-63
2021/01/17 08:04:17;;;;;;;45.90;22.83;;;-1.60;99.90;;;;;;5057068;28;20134;-61
2021/01/17 08:06:45;;;;;;;42.50;21.42;;;-1.60;99.90;;;;;;5056338;28;20080;-62
2021/01/17 08:09:12;;;;;;;45.05;21.67;;;-1.60;99.90;;;;;;5072586;28;20111;-62
2021/01/17 08:11:52;;;;;;;42.97;22.05;;;-1.50;99.90;;;;;;5071712;28;20036;-61
2021/01/17 08:14:28;;;;;;;40.72;21.30;;;-1.30;99.90;;;;;;5072509;28;20025;-61
2021/01/17 08:17:11;;;;;;;46.50;22.00;;;-1.20;99.90;;;;;;5073374;28;20040;-61
2021/01/17 08:19:53;;;;;;;47.83;24.10;;;-1.20;99.90;;;;;;5070837;28;21426;-61
2021/01/17 08:22:19;;;;;;;46.88;24.77;;;-1.20;99.90;;;;;;5071770;28;20051;-62
2021/01/17 08:24:55;;;;;;;57.88;27.95;;;-1.20;99.90;;;;;;5053174;28;20025;-61
2021/01/17 08:27:41;;;;;;;51.90;27.00;;;-1.20;99.90;;;;;;5064881;28;20032;-61
2021/01/17 08:30:16;;;;;;;47.22;24.00;;;-1.20;99.90;;;;;;5066730;28;20029;-61
2021/01/17 08:32:50;;;;;;;54.17;26.33;;;-1.20;99.90;;;;;;5056578;28;20036;-61
2021/01/17 08:35:25;;;;;;;47.85;24.17;;;-1.10;99.90;;;;;;5052423;28;20037;-63
2021/01/17 08:38:12;;;;;;;44.88;23.30;;;-1.10;99.90;;;;;;5054882;28;20111;-62
2021/01/17 08:40:43;;;;;;;47.92;24.55;;;-1.00;99.90;;;;;;5061804;28;20032;-64
2021/01/17 08:43:12;;;;;;;46.63;23.90;;;-1.00;99.90;;;;;;5063100;28;20420;-61
2021/01/17 08:45:48;;;;;;;49.53;25.17;;;-0.90;99.90;;;;;;5053699;28;20025;-61
2021/01/17 08:48:17;;;;;;;48.50;25.92;;;-0.80;99.90;;;;;;5071914;28;20051;-63
2021/01/17 08:50:44;;;;;;;51.13;25.48;;;-0.80;99.90;;;;;;5063363;28;20034;-62
2021/01/17 08:53:26;;;;;;;51.33;25.98;;;-0.70;99.90;;;;;;5054085;28;20066;-61
2021/01/17 08:56:18;;;;;;;51.22;26.77;;;-0.70;99.90;;;;;;5072147;28;20082;-61
2021/01/17 08:58:48;;;;;;;48.33;24.58;;;-0.70;99.90;;;;;;5071845;28;20099;-64
2021/01/17 09:01:15;;;;;;;45.63;23.85;;;-0.70;99.90;;;;;;5072228;28;20091;-62
2021/01/17 09:03:44;;;;;;;52.72;25.80;;;-0.70;99.90;;;;;;5071121;28;20051;-60
2021/01/17 09:06:13;;;;;;;43.75;22.63;;;-0.70;99.90;;;;;;5051691;28;20029;-61
2021/01/17 09:08:53;;;;;;;43.63;22.35;;;-0.60;99.90;;;;;;5065746;28;20069;-61
2021/01/17 09:11:28;;;;;;;46.63;23.33;;;-0.60;99.90;;;;;;5070172;28;20029;-62
2021/01/17 09:14:11;;;;;;;45.50;24.55;;;-0.50;99.90;;;;;;5071285;28;20024;-63
2021/01/17 09:16:56;;;;;;;47.30;23.83;;;-0.50;99.90;;;;;;5069961;28;20611;-62
2021/01/17 09:19:29;;;;;;;45.55;22.73;;;-0.40;99.90;;;;;;5070341;28;20040;-62
2021/01/17 09:21:56;;;;;;;45.22;22.10;;;-0.40;99.90;;;;;;5064778;28;20144;-61
2021/01/17 09:24:27;;;;;;;39.13;22.48;;;-0.40;99.90;;;;;;5070683;28;20029;-61
2021/01/17 09:27:03;;;;;;;40.55;22.00;;;-0.30;99.90;;;;;;5070800;28;20052;-62
2021/01/17 09:29:33;;;;;;;42.05;23.05;;;-0.30;99.90;;;;;;5070659;28;20042;-62
2021/01/17 09:32:07;;;;;;;43.63;23.27;;;-0.30;99.90;;;;;;5060967;28;20432;-62
2021/01/17 09:34:35;;;;;;;45.35;23.13;;;-0.20;99.90;;;;;;5064985;28;20058;-63
2021/01/17 09:37:05;;;;;;;42.13;22.48;;;-0.20;99.90;;;;;;5070735;28;20025;-63
2021/01/17 09:39:37;;;;;;;47.65;24.27;;;-0.10;99.90;;;;;;5060603;28;20040;-63
2021/01/17 09:42:05;;;;;;;49.13;26.17;;;-0.10;99.90;;;;;;5063158;28;20473;-63
2021/01/17 09:44:32;;;;;;;49.58;26.35;;;0.10;99.90;;;;;;5070999;28;20107;-63
2021/01/17 09:46:58;;;;;;;50.72;26.40;;;0.10;99.90;;;;;;5053458;28;20381;-64
2021/01/17 09:49:26;;;;;;;51.72;27.38;;;0.10;99.90;;;;;;5070309;28;20115;-64
2021/01/17 09:51:53;;;;;;;61.10;27.75;;;0.10;99.90;;;;;;5070893;28;20054;-62
2021/01/17 09:54:19;;;;;;;48.65;27.48;;;0.00;99.90;;;;;;5070219;28;20112;-63
2021/01/17 09:56:45;;;;;;;50.58;27.48;;;0.00;99.90;;;;;;5069076;28;20083;-62
2021/01/17 09:59:16;;;;;;;44.53;25.15;;;0.10;99.90;;;;;;5070360;28;20044;-61
2021/01/17 10:01:43;;;;;;;51.63;26.98;;;0.10;99.90;;;;;;5070218;28;20484;-61
2021/01/17 10:04:23;;;;;;;51.38;27.58;;;0.10;99.90;;;;;;5051305;28;20039;-61
2021/01/17 10:06:54;;;;;;;55.97;28.15;;;0.10;99.90;;;;;;5070494;28;20024;-61
2021/01/17 10:09:21;;;;;;;52.00;28.15;;;0.20;99.90;;;;;;5070341;28;20089;-62
2021/01/17 10:11:53;;;;;;;50.72;26.75;;;0.20;99.90;;;;;;5070506;28;20025;-61
2021/01/17 10:14:30;;;;;;;53.22;28.02;;;0.20;99.90;;;;;;5069902;28;20032;-62
2021/01/17 10:16:58;;;;;;;52.05;27.90;;;0.30;99.90;;;;;;5052927;28;20024;-61
2021/01/17 10:19:32;;;;;;;58.72;28.38;;;0.30;99.90;;;;;;5052510;28;20049;-61
2021/01/17 10:21:59;;;;;;;51.17;27.88;;;0.30;99.90;;;;;;5062302;28;20476;-62
2021/01/17 10:24:31;;;;;;;55.10;28.50;;;0.30;99.90;;;;;;5074242;28;20068;-61
2021/01/17 10:26:58;;;;;;;53.17;27.10;;;0.40;99.90;;;;;;5069208;28;20029;-62
2021/01/17 10:29:30;;;;;;;48.45;25.98;;;0.40;99.90;;;;;;5057095;28;20048;-61
2021/01/17 10:32:15;;;;;;;49.70;25.85;;;0.50;99.90;;;;;;5056103;28;20024;-61
2021/01/17 10:34:46;;;;;;;55.38;29.63;;;0.50;99.90;;;;;;5053102;28;20461;-62
2021/01/17 10:37:17;;;;;;;58.63;31.95;;;0.50;99.90;;;;;;5074386;28;20029;-62
2021/01/17 10:39:43;;;;;;;51.40;28.98;;;0.50;99.90;;;;;;5068223;28;20099;-61
2021/01/17 10:42:23;;;;;;;55.00;29.45;;;0.50;99.90;;;;;;5054160;28;20028;-61
2021/01/17 10:45:06;;;;;;;54.97;31.85;;;0.60;99.90;;;;;;5056784;28;20857;-60
2021/01/17 10:47:56;;;;;;;56.65;29.63;;;0.60;99.90;;;;;;5061247;28;20048;-63
2021/01/17 10:50:24;;;;;;;54.92;29.17;;;0.60;99.90;;;;;;5066688;28;20512;-61
2021/01/17 10:53:15;;;;;;;57.80;31.02;;;0.60;99.90;;;;;;5073863;28;20032;-61
2021/01/17 10:55:45;;;;;;;62.95;33.60;;;0.70;99.90;;;;;;5073730;28;20040;-61
2021/01/17 10:58:18;;;;;;;62.17;30.73;;;0.70;99.90;;;;;;5070350;28;20442;-62
2021/01/17 11:00:51;;;;;;;65.55;31.45;;;0.80;99.90;;;;;;5053550;28;20044;-64
2021/01/17 11:03:29;;;;;;;67.22;31.85;;;0.80;99.90;;;;;;5067400;28;20078;-62
2021/01/17 11:06:04;;;;;;;59.70;32.05;;;0.70;99.90;;;;;;5073307;28;20033;-61
2021/01/17 11:08:33;;;;;;;58.10;29.20;;;0.70;99.90;;;;;;5072659;28;20039;-61
2021/01/17 11:10:58;;;;;;;59.13;30.35;;;0.60;99.90;;;;;;5053999;28;20096;-60
2021/01/17 11:13:24;;;;;;;59.03;29.33;;;0.60;99.90;;;;;;5053438;28;20032;-61
2021/01/17 11:15:50;;;;;;;56.25;29.88;;;0.50;99.90;;;;;;5053427;28;20409;-60
2021/01/17 11:18:21;;;;;;;56.00;30.02;;;0.50;99.90;;;;;;5069240;28;20350;-61
2021/01/17 11:20:47;;;;;;;52.63;27.95;;;0.50;99.90;;;;;;5073297;28;20043;-61
2021/01/17 11:23:12;;;;;;;56.00;29.35;;;0.50;99.90;;;;;;5053568;28;20049;-61
2021/01/17 11:25:38;;;;;;;61.88;30.80;;;0.50;99.90;;;;;;5053440;28;20708;-65
2021/01/17 11:28:04;;;;;;;54.20;29.27;;;0.50;99.90;;;;;;5050785;28;20094;-64
2021/01/17 11:30:34;;;;;;;53.53;28.00;;;0.50;99.90;;;;;;5052584;28;20044;-65
2021/01/17 11:33:15;;;;;;;57.00;29.23;;;0.60;99.90;;;;;;5054921;28;20029;-62
2021/01/17 11:35:41;;;;;;;56.08;28.40;;;0.60;99.90;;;;;;5072667;28;20236;-61
2021/01/17 11:38:08;;;;;;;57.15;29.83;;;0.60;99.90;;;;;;5064442;28;20465;-62
2021/01/17 11:40:34;;;;;;;58.78;29.83;;;0.50;99.90;;;;;;5068648;28;20378;-63
2021/01/17 11:43:11;;;;;;;55.58;28.85;;;0.50;99.90;;;;;;5074014;28;20499;-63
2021/01/17 11:45:44;;;;;;;56.67;28.40;;;0.50;99.90;;;;;;5062832;28;20032;-61
2021/01/17 11:48:11;;;;;;;62.22;31.45;;;0.50;99.90;;;;;;5038039;28;20028;-63
2021/01/17 11:50:45;;;;;;;58.53;29.00;;;0.40;99.90;;;;;;5042944;28;20041;-65
2021/01/17 11:53:12;;;;;;;55.67;28.95;;;0.40;99.90;;;;;;5052969;28;20084;-65
2021/01/17 11:55:38;;;;;;;58.22;29.65;;;0.30;99.90;;;;;;5051940;28;20120;-68
2021/01/17 11:58:22;;;;;;;61.95;29.52;;;0.30;99.90;;;;;;5061124;28;20104;-62
2021/01/17 12:00:58;;;;;;;56.63;28.50;;;0.30;99.90;;;;;;5064673;28;20037;-64
2021/01/17 12:03:35;;;;;;;53.65;28.27;;;0.30;99.90;;;;;;5058915;28;20508;-64
2021/01/17 12:06:08;;;;;;;51.17;27.25;;;0.20;99.90;;;;;;5070476;28;20028;-66
2021/01/17 12:09:09;;;;;;;59.00;29.50;;;0.20;99.90;;;;;;5052257;28;20079;-63
2021/01/17 12:11:40;;;;;;;57.42;29.63;;;0.20;99.90;;;;;;5052367;28;20492;-64
2021/01/17 12:14:18;;;;;;;56.03;29.50;;;0.30;99.90;;;;;;5071532;28;20043;-65
2021/01/17 12:16:54;;;;;;;56.15;29.17;;;0.30;99.90;;;;;;5066192;28;20024;-64
2021/01/17 12:19:21;;;;;;;62.22;31.38;;;0.30;99.90;;;;;;5072198;28;20069;-63
2021/01/17 12:21:49;;;;;;;58.88;30.73;;;0.30;99.90;;;;;;5052594;28;20049;-63
2021/01/17 12:24:16;;;;;;;57.35;29.20;;;0.30;99.90;;;;;;5051623;28;20067;-64
2021/01/17 12:26:45;;;;;;;57.72;29.13;;;0.30;99.90;;;;;;5058637;28;20077;-62
2021/01/17 12:29:12;;;;;;;59.40;30.23;;;0.30;99.90;;;;;;5071043;28;20141;-62
2021/01/17 12:31:38;;;;;;;62.15;30.15;;;0.30;99.90;;;;;;5071857;28;20170;-62
2021/01/17 12:34:05;;;;;;;56.67;29.80;;;0.40;99.90;;;;;;5072268;28;20113;-63
2021/01/17 12:36:32;;;;;;;54.30;29.13;;;0.30;99.90;;;;;;5051269;28;20044;-63
2021/01/17 12:38:58;;;;;;;52.85;28.27;;;0.40;99.90;;;;;;5054329;28;20167;-64
2021/01/17 12:41:27;;;;;;;58.15;28.67;;;0.40;99.90;;;;;;5070773;28;20024;-64
2021/01/17 12:43:53;;;;;;;58.13;30.13;;;0.40;99.90;;;;;;5053479;28;20056;-64
2021/01/17 12:46:19;;;;;;;61.47;30.50;;;0.40;99.90;;;;;;5069778;28;20536;-65